Time;durP1;ratioP1;P1;durP2;ratioP2;P2;SDS_P1;SDS_P2;PMS_P1;PMS_P2;Temp;Humidity;BMP_temperature;BMP_pressure;BME280_temperature;BME280_humidity;BME280_pressure;Samples;Min_cycle;Max_cycle;Signal;HPM_P1;HPM_P2
2022/10/14 00:01:03;;;;;;;34.65;17.90;;;;;;;9.14;72.26;101513.86;1699711;82;21733;-87
2022/10/14 00:03:31;;;;;;;30.12;17.48;;;;;;;9.14;72.22;101511.23;1699735;82;21023;-88
2022/10/14 00:05:58;;;;;;;27.70;16.97;;;;;;;9.14;72.20;101512.94;1683422;83;21500;-88
2022/10/14 00:08:26;;;;;;;34.23;17.52;;;;;;;9.14;72.13;101514.25;1699523;82;21059;-88
2022/10/14 00:10:52;;;;;;;34.80;18.02;;;;;;;9.12;72.11;101519.47;1699664;82;21038;-87
2022/10/14 00:13:23;;;;;;;28.23;16.87;;;;;;;9.09;72.14;101512.75;1711146;82;21847;-87
2022/10/14 00:15:48;;;;;;;28.02;16.30;;;;;;;9.08;72.12;101510.95;1702055;81;21031;-87
2022/10/14 00:18:15;;;;;;;30.40;15.93;;;;;;;9.05;72.11;101511.26;1714029;82;21003;-87
2022/10/14 00:20:41;;;;;;;33.48;16.60;;;;;;;9.00;72.14;101504.47;1708253;82;20987;-87
2022/10/14 00:23:08;;;;;;;29.37;17.92;;;;;;;8.96;72.14;101505.18;1728451;82;21541;-87
2022/10/14 00:25:37;;;;;;;29.23;15.98;;;;;;;8.93;72.17;101507.66;1706927;82;21979;-88
2022/10/14 00:28:05;;;;;;;27.17;16.48;;;;;;;8.90;72.21;101504.50;1718489;82;21062;-87
2022/10/14 00:30:32;;;;;;;33.42;15.70;;;;;;;8.90;72.32;101499.67;1702460;82;21164;-88
2022/10/14 00:33:01;;;;;;;36.03;16.10;;;;;;;8.92;72.33;101494.95;1693233;82;21380;-89
2022/10/14 00:35:27;;;;;;;32.23;16.45;;;;;;;8.88;72.22;101489.52;1710278;82;21081;-87
2022/10/14 00:37:54;;;;;;;27.40;15.35;;;;;;;8.83;72.26;101493.23;1703191;82;21530;-87
2022/10/14 00:40:30;;;;;;;28.47;16.62;;;;;;;8.81;72.28;101494.02;1711456;82;21145;-87
2022/10/14 00:43:15;;;;;;;30.85;16.35;;;;;;;8.77;72.29;101490.77;1718203;82;21592;-87
2022/10/14 00:45:42;;;;;;;24.95;16.62;;;;;;;8.71;72.36;101493.61;1697791;82;21081;-87
2022/10/14 00:48:09;;;;;;;25.52;16.07;;;;;;;8.70;72.39;101489.59;1698188;82;21120;-87
2022/10/14 00:50:36;;;;;;;24.60;15.85;;;;;;;8.67;72.51;101484.20;1698255;82;22485;-88
2022/10/14 00:53:03;;;;;;;28.38;16.42;;;;;;;8.67;72.58;101484.20;1698161;82;21086;-89
2022/10/14 00:55:30;;;;;;;29.82;16.97;;;;;;;8.65;72.58;101480.61;1707061;82;21115;-88
2022/10/14 00:57:58;;;;;;;29.95;17.52;;;;;;;8.60;72.61;101473.86;1701413;82;21094;-88
2022/10/14 01:00:25;;;;;;;28.12;16.05;;;;;;;8.59;72.60;101474.67;1710881;82;20967;-88
2022/10/14 01:02:52;;;;;;;31.10;17.20;;;;;;;8.59;72.70;101470.73;1708475;82;21742;-88
2022/10/14 01:05:18;;;;;;;30.50;16.85;;;;;;;8.56;72.63;101473.25;1698360;82;21066;-87
2022/10/14 01:07:51;;;;;;;25.90;15.83;;;;;;;8.54;72.76;101469.66;1698013;82;21265;-86
2022/10/14 01:10:31;;;;;;;28.60;17.00;;;;;;;8.53;72.79;101473.98;1706527;82;21141;-86
2022/10/14 01:13:28;;;;;;;31.85;17.60;;;;;;;8.54;72.89;101468.34;1698295;82;21073;-87
2022/10/14 01:16:06;;;;;;;27.70;17.10;;;;;;;8.59;73.02;101465.48;1698185;82;21537;-86
2022/10/14 01:19:05;;;;;;;29.25;16.35;;;;;;;8.68;73.07;101471.56;1697679;82;21098;-86
2022/10/14 01:21:52;;;;;;;29.90;16.42;;;;;;;8.72;73.04;101474.38;1697866;82;21403;-87
2022/10/14 01:24:41;;;;;;;31.57;16.60;;;;;;;8.68;72.83;101466.32;1676504;83;21189;-86
2022/10/14 01:27:17;;;;;;;28.12;17.40;;;;;;;8.59;72.78;101460.23;1698317;82;21078;-87
2022/10/14 01:30:01;;;;;;;33.55;17.27;;;;;;;8.50;72.75;101466.38;1701868;82;21851;-86
2022/10/14 01:32:42;;;;;;;29.42;16.15;;;;;;;8.45;72.89;101460.95;1699730;82;21085;-87
2022/10/14 01:35:19;;;;;;;27.00;17.12;;;;;;;8.43;73.03;101463.92;1692602;81;21051;-87
2022/10/14 01:38:25;;;;;;;29.27;15.72;;;;;;;8.41;73.09;101454.13;1703108;82;20951;-86
2022/10/14 01:41:06;;;;;;;29.42;16.93;;;;;;;8.41;73.23;101455.44;1706979;82;21130;-86
2022/10/14 01:43:33;;;;;;;27.80;16.15;;;;;;;8.47;73.45;101446.59;1706378;82;22595;-86
2022/10/14 01:46:02;;;;;;;27.10;16.07;;;;;;;8.50;73.42;101443.69;1688903;83;21324;-87
2022/10/14 01:48:35;;;;;;;28.67;16.55;;;;;;;8.53;73.42;101449.05;1690531;83;21548;-87
2022/10/14 01:51:08;;;;;;;31.23;16.50;;;;;;;8.53;73.36;101439.88;1708376;83;21063;-87
2022/10/14 01:53:42;;;;;;;28.30;16.10;;;;;;;8.54;73.38;101435.55;1689181;83;21079;-86
2022/10/14 01:56:09;;;;;;;35.65;17.67;;;;;;;8.55;73.43;101434.70;1689876;82;21833;-86
2022/10/14 01:58:36;;;;;;;30.48;16.12;;;;;;;8.59;73.46;101437.05;1671140;83;21061;-87
2022/10/14 02:01:07;;;;;;;28.45;16.25;;;;;;;8.59;73.38;101434.42;1702310;81;21093;-89
2022/10/14 02:03:40;;;;;;;28.87;15.95;;;;;;;8.56;73.35;101432.15;1723346;80;21781;-89
2022/10/14 02:06:15;;;;;;;27.85;16.23;;;;;;;8.52;73.31;101431.92;1692705;82;21173;-89
2022/10/14 02:09:07;;;;;;;34.08;17.90;;;;;;;8.46;73.22;101429.04;1688481;81;21501;-89
2022/10/14 02:11:43;;;;;;;30.00;16.30;;;;;;;8.39;73.31;101431.79;1694846;81;21706;-89
2022/10/14 02:14:35;;;;;;;29.65;16.15;;;;;;;8.32;73.31;101431.91;1718780;80;21090;-87
2022/10/14 02:17:24;;;;;;;24.55;15.78;;;;;;;8.26;73.38;101429.41;1718824;80;21527;-87
2022/10/14 02:20:25;;;;;;;28.80;16.65;;;;;;;8.21;73.53;101429.64;1720025;80;21086;-87
2022/10/14 02:22:58;;;;;;;33.63;17.05;;;;;;;8.20;73.67;101430.03;1719320;80;21752;-87
2022/10/14 02:25:29;;;;;;;32.10;17.35;;;;;;;8.21;73.76;101423.09;1719322;80;21001;-86
2022/10/14 02:27:57;;;;;;;24.07;16.02;;;;;;;8.21;73.81;101423.09;1719380;80;21129;-86
2022/10/14 02:30:24;;;;;;;31.25;16.35;;;;;;;8.20;73.90;101417.34;1720765;80;21035;-85
2022/10/14 02:32:51;;;;;;;29.42;16.45;;;;;;;8.24;73.99;101414.02;1721028;80;21015;-85
2022/10/14 02:35:18;;;;;;;27.35;17.02;;;;;;;8.25;74.06;101412.79;1714994;81;21726;-87
2022/10/14 02:37:48;;;;;;;28.10;16.80;;;;;;;8.29;74.14;101413.83;1724695;80;21137;-87
2022/10/14 02:40:18;;;;;;;31.87;17.30;;;;;;;8.36;74.23;101412.85;1719043;80;21151;-86
2022/10/14 02:42:45;;;;;;;32.03;17.07;;;;;;;8.44;74.33;101413.22;1709262;81;21208;-86
2022/10/14 02:45:11;;;;;;;33.18;17.05;;;;;;;8.51;74.33;101417.92;1725934;80;21129;-87
2022/10/14 02:47:38;;;;;;;28.05;17.20;;;;;;;8.57;74.28;101418.60;1695656;81;21848;-85
2022/10/14 02:50:08;;;;;;;30.77;18.20;;;;;;;8.64;74.31;101415.84;1699812;82;22086;-85
2022/10/14 02:52:35;;;;;;;29.35;18.60;;;;;;;8.67;74.25;101419.50;1699675;82;21116;-86
2022/10/14 02:55:02;;;;;;;26.80;18.02;;;;;;;8.70;74.20;101410.85;1699993;81;21154;-85
2022/10/14 02:57:31;;;;;;;27.75;17.77;;;;;;;8.73;74.17;101416.25;1699937;82;21089;-85
2022/10/14 02:59:57;;;;;;;28.30;17.17;;;;;;;8.73;74.17;101414.52;1700014;81;23385;-85
2022/10/14 03:02:24;;;;;;;29.37;18.42;;;;;;;8.73;74.11;101407.95;1699975;81;22086;-85
2022/10/14 03:04:50;;;;;;;31.25;18.45;;;;;;;8.70;74.09;101409.12;1700016;82;21085;-85
2022/10/14 03:07:17;;;;;;;35.75;19.42;;;;;;;8.64;74.08;101404.92;1708366;81;21497;-86
2022/10/14 03:09:44;;;;;;;28.67;18.35;;;;;;;8.63;74.10;101407.05;1708201;81;21077;-85
2022/10/14 03:12:11;;;;;;;28.12;18.40;;;;;;;8.63;74.20;101403.54;1705622;81;21765;-85
2022/10/14 03:14:39;;;;;;;33.53;18.00;;;;;;;8.65;74.31;101406.73;1706850;81;21003;-86
2022/10/14 03:17:05;;;;;;;30.72;19.10;;;;;;;8.69;74.38;101402.48;1728075;81;20988;-86
2022/10/14 03:19:32;;;;;;;31.68;19.20;;;;;;;8.72;74.39;101398.69;1726955;81;21101;-86
2022/10/14 03:21:59;;;;;;;32.60;19.67;;;;;;;8.77;74.38;101404.16;1707029;81;21059;-86
2022/10/14 03:24:26;;;;;;;31.20;19.85;;;;;;;8.76;74.30;101394.05;1706922;81;21725;-86
2022/10/14 03:26:53;;;;;;;35.40;18.98;;;;;;;8.77;74.36;101397.17;1706859;81;21035;-86
2022/10/14 03:29:19;;;;;;;29.18;18.17;;;;;;;8.78;74.37;101396.73;1706889;81;21007;-86
2022/10/14 03:31:46;;;;;;;29.90;18.57;;;;;;;8.81;74.41;101398.20;1720453;81;21022;-86
2022/10/14 03:34:13;;;;;;;32.53;19.20;;;;;;;8.83;74.38;101391.28;1713856;81;21022;-86
2022/10/14 03:36:42;;;;;;;29.98;18.27;;;;;;;8.81;74.30;101385.95;1707142;81;21734;-86
2022/10/14 03:39:10;;;;;;;27.35;18.55;;;;;;;8.78;74.28;101386.24;1707013;81;21559;-86
2022/10/14 03:41:37;;;;;;;31.95;19.73;;;;;;;8.75;74.28;101387.02;1699286;81;20993;-86
2022/10/14 03:44:03;;;;;;;31.93;20.08;;;;;;;8.69;74.27;101388.97;1698653;82;21581;-86
2022/10/14 03:46:30;;;;;;;36.85;20.05;;;;;;;8.68;74.29;101391.52;1701662;82;21175;-86
2022/10/14 03:48:57;;;;;;;28.77;17.23;;;;;;;8.64;74.34;101390.91;1679519;83;21609;-86
2022/10/14 03:51:24;;;;;;;28.12;19.00;;;;;;;8.58;74.29;101384.98;1679547;83;21085;-85
2022/10/14 03:53:51;;;;;;;33.83;19.17;;;;;;;8.52;74.34;101387.32;1679671;83;21525;-85
2022/10/14 03:56:18;;;;;;;35.10;19.65;;;;;;;8.47;74.34;101383.63;1680152;82;21574;-84
2022/10/14 03:58:44;;;;;;;30.05;18.27;;;;;;;8.40;74.34;101384.14;1689395;83;21354;-83
2022/10/14 04:01:11;;;;;;;31.35;19.82;;;;;;;8.36;74.40;101387.05;1679649;83;21760;-86
2022/10/14 04:03:40;;;;;;;31.35;19.05;;;;;;;8.31;74.44;101380.69;1679160;83;21136;-85
2022/10/14 04:06:06;;;;;;;30.57;20.45;;;;;;;8.25;74.36;101379.12;1679520;83;21075;-86
2022/10/14 04:08:33;;;;;;;31.25;19.75;;;;;;;8.17;74.47;101382.71;1679709;82;21100;-86
2022/10/14 04:11:02;;;;;;;38.48;20.37;;;;;;;8.11;74.47;101383.33;1663011;83;21081;-85
2022/10/14 04:13:29;;;;;;;33.83;19.87;;;;;;;8.04;74.56;101385.61;1682903;82;21762;-85
2022/10/14 04:15:56;;;;;;;37.05;20.32;;;;;;;7.98;74.56;101384.50;1697410;82;21057;-89
2022/10/14 04:18:23;;;;;;;35.35;21.25;;;;;;;7.92;74.70;101385.92;1689382;83;21491;-89
2022/10/14 04:20:53;;;;;;;33.60;21.20;;;;;;;7.87;74.76;101380.48;1679095;83;21072;-89
2022/10/14 04:23:22;;;;;;;44.35;23.85;;;;;;;7.82;74.81;101374.55;1698808;82;21057;-90
2022/10/14 04:25:55;;;;;;;38.02;23.73;;;;;;;7.73;74.88;101369.77;1678950;83;21699;-86
2022/10/14 04:28:23;;;;;;;37.13;22.60;;;;;;;7.66;74.96;101370.30;1687377;83;21084;-88
2022/10/14 04:30:53;;;;;;;31.87;21.65;;;;;;;7.61;75.09;101373.14;1678977;83;21129;-88
2022/10/14 04:33:20;;;;;;;41.50;23.02;;;;;;;7.57;75.18;101370.37;1678946;83;21781;-88
2022/10/14 04:35:46;;;;;;;35.92;22.98;;;;;;;7.53;75.25;101367.55;1678891;83;21174;-88
2022/10/14 04:38:45;;;;;;;37.00;23.73;;;;;;;7.48;75.30;101367.31;1652791;83;21073;-92
2022/10/14 04:44:32;;;;;;;38.05;23.73;;;;;;;7.38;75.53;101362.48;1709768;81;21058;-96
2022/10/14 04:47:05;;;;;;;38.92;23.22;;;;;;;7.34;75.59;101360.13;1684375;82;21111;-92
2022/10/14 04:53:35;;;;;;;39.15;24.92;;;;;;;7.21;75.83;101347.27;1712874;81;21079;-89
2022/10/14 04:56:02;;;;;;;36.70;23.55;;;;;;;7.28;75.93;101360.22;1707539;81;21085;-90
2022/10/14 04:58:29;;;;;;;40.35;24.57;;;;;;;7.26;75.99;101355.33;1707950;81;20993;-91
2022/10/14 05:00:56;;;;;;;38.53;23.70;;;;;;;7.25;76.08;101353.13;1708166;81;21096;-90
2022/10/14 05:03:23;;;;;;;39.15;24.77;;;;;;;7.22;76.06;101352.08;1707512;81;21483;-90
2022/10/14 05:06:00;;;;;;;36.23;23.00;;;;;;;7.23;76.13;101355.20;1707972;81;22453;-90
2022/10/14 05:08:26;;;;;;;41.53;24.27;;;;;;;7.22;76.23;101353.39;1707821;81;22283;-86
2022/10/14 05:10:55;;;;;;;40.88;24.27;;;;;;;7.19;76.27;101349.80;1710140;81;21105;-86
2022/10/14 05:13:22;;;;;;;40.33;23.90;;;;;;;7.23;76.37;101351.27;1707949;81;21070;-86
2022/10/14 05:15:49;;;;;;;42.62;22.98;;;;;;;7.25;76.58;101353.55;1707905;81;21359;-86
2022/10/14 05:18:19;;;;;;;38.08;23.18;;;;;;;7.26;76.46;101348.78;1707558;81;21739;-86
2022/10/14 05:20:46;;;;;;;34.92;23.75;;;;;;;7.28;76.51;101350.67;1707524;81;21575;-87
2022/10/14 05:23:16;;;;;;;37.95;23.98;;;;;;;7.29;76.51;101347.63;1707915;81;21072;-87
2022/10/14 05:25:46;;;;;;;32.73;22.42;;;;;;;7.30;76.54;101347.71;1707424;81;21100;-87
2022/10/14 05:28:14;;;;;;;37.53;22.90;;;;;;;7.34;76.63;101343.09;1714324;81;21089;-86
2022/10/14 05:30:41;;;;;;;36.95;22.73;;;;;;;7.38;76.62;101351.58;1714629;81;21712;-86
2022/10/14 05:33:10;;;;;;;37.03;23.00;;;;;;;7.45;76.76;101341.38;1707797;81;21548;-87
2022/10/14 05:35:44;;;;;;;39.05;23.38;;;;;;;7.53;76.82;101344.86;1712829;81;22591;-87
2022/10/14 05:38:14;;;;;;;34.95;22.82;;;;;;;7.62;76.79;101349.64;1722949;81;21053;-86
2022/10/14 05:40:56;;;;;;;43.70;22.35;;;;;;;7.69;76.76;101342.94;1736735;81;21058;-87
2022/10/14 05:43:26;;;;;;;42.48;23.47;;;;;;;7.77;76.76;101341.56;1709831;81;21981;-86
2022/10/14 05:45:56;;;;;;;40.38;24.12;;;;;;;7.84;76.73;101345.37;1710333;81;21014;-90
2022/10/14 05:48:37;;;;;;;35.88;23.47;;;;;;;7.89;76.71;101340.82;1709719;81;21178;-96
2022/10/14 05:51:29;;;;;;;38.53;23.15;;;;;;;7.95;76.67;101342.40;1701857;81;21093;-96
2022/10/14 05:54:29;;;;;;;44.00;24.70;;;;;;;8.02;76.62;101347.52;1636537;87;21013;-96
2022/10/14 05:57:37;;;;;;;33.78;23.20;;;;;;;8.06;76.58;101338.07;1611348;87;23251;-96
2022/10/14 06:00:09;;;;;;;36.20;23.07;;;;;;;8.06;76.44;101346.82;1575829;88;79067;-84
2022/10/14 06:02:36;;;;;;;40.67;24.18;;;;;;;8.05;76.35;101345.05;1638194;86;21119;-82
2022/10/14 06:05:04;;;;;;;36.75;24.18;;;;;;;8.08;76.42;101349.09;1644461;86;21136;-91
2022/10/14 06:07:31;;;;;;;37.55;23.47;;;;;;;8.07;76.32;101351.64;1650171;86;21100;-88
2022/10/14 06:09:59;;;;;;;39.40;23.60;;;;;;;8.05;76.31;101358.55;1605110;88;21804;-88
2022/10/14 06:12:26;;;;;;;41.15;24.87;;;;;;;8.05;76.37;101358.16;1646199;86;21569;-88
2022/10/14 06:14:53;;;;;;;40.63;24.00;;;;;;;8.06;76.33;101356.42;1648443;86;21664;-89
2022/10/14 06:17:29;;;;;;;39.95;23.10;;;;;;;8.07;76.35;101362.13;1621165;88;21158;-90
2022/10/14 06:19:56;;;;;;;40.70;24.55;;;;;;;8.09;76.40;101360.08;1648522;86;22238;-90
2022/10/14 06:22:25;;;;;;;35.85;26.10;;;;;;;8.12;76.40;101352.75;1615412;88;21727;-88
2022/10/14 06:24:53;;;;;;;36.48;25.00;;;;;;;8.12;76.33;101352.75;1625224;86;21172;-90
2022/10/14 06:27:20;;;;;;;41.55;27.15;;;;;;;8.13;76.37;101348.01;1614327;88;21108;-90
2022/10/14 06:29:47;;;;;;;41.33;28.12;;;;;;;8.16;76.45;101348.13;1653108;81;21116;-90
2022/10/14 06:32:17;;;;;;;47.45;27.95;;;;;;;8.22;76.50;101345.80;1733350;82;21061;-84
2022/10/14 06:34:46;;;;;;;51.25;31.45;;;;;;;8.22;76.53;101343.17;1740634;81;21751;-89
2022/10/14 06:37:17;;;;;;;45.90;30.25;;;;;;;8.33;76.58;101360.28;1690881;84;21101;-90
2022/10/14 06:39:48;;;;;;;51.42;29.27;;;;;;;8.38;76.53;101357.41;1710624;82;21583;-90
2022/10/14 06:42:15;;;;;;;56.63;29.10;;;;;;;8.41;76.44;101351.42;1744662;81;21534;-91
2022/10/14 06:44:45;;;;;;;44.25;28.12;;;;;;;8.43;76.51;101348.87;1759346;81;21078;-90
2022/10/14 06:47:12;;;;;;;43.13;27.90;;;;;;;8.46;76.48;101350.33;1753417;81;21685;-90
2022/10/14 06:49:39;;;;;;;52.00;28.57;;;;;;;8.47;76.47;101348.20;1737723;81;21076;-90
2022/10/14 06:52:06;;;;;;;47.13;28.40;;;;;;;8.50;76.56;101350.55;1688041;84;21089;-89
2022/10/14 06:54:33;;;;;;;50.78;29.92;;;;;;;8.56;76.69;101361.30;1739945;81;21067;-90
2022/10/14 06:57:01;;;;;;;54.65;32.38;;;;;;;8.66;76.79;101356.02;1743262;81;21017;-89
2022/10/14 06:59:28;;;;;;;49.50;31.48;;;;;;;8.80;76.90;101355.70;1755496;80;21760;-90
2022/10/14 07:01:55;;;;;;;48.25;29.92;;;;;;;9.01;77.07;101355.69;1759800;80;21083;-89
2022/10/14 07:04:22;;;;;;;52.20;30.50;;;;;;;9.26;77.17;101354.97;1768228;80;21058;-89
2022/10/14 07:07:02;;;;;;;47.23;27.73;;;;;;;9.49;76.99;101354.12;1755651;80;21079;-92
2022/10/14 07:09:29;;;;;;;42.03;29.40;;;;;;;9.75;77.02;101351.61;1758204;80;21026;-93
2022/10/14 07:11:56;;;;;;;41.02;26.33;;;;;;;10.07;76.94;101349.30;1777553;80;21743;-93
2022/10/14 07:14:29;;;;;;;42.00;27.27;;;;;;;10.30;76.57;101348.80;1703942;83;21074;-92
2022/10/14 07:16:57;;;;;;;40.88;27.17;;;;;;;10.47;76.27;101342.45;1685178;83;21113;-94
2022/10/14 07:19:23;;;;;;;42.20;25.92;;;;;;;10.65;75.95;101349.18;1767472;80;22265;-93
2022/10/14 07:21:50;;;;;;;41.92;26.73;;;;;;;10.85;75.88;101347.23;1746649;81;21579;-94
2022/10/14 07:24:17;;;;;;;37.75;26.02;;;;;;;11.04;75.59;101351.36;1767562;80;21790;-93
2022/10/14 07:26:44;;;;;;;39.38;26.77;;;;;;;11.14;75.18;101340.70;1746780;82;21050;-93
2022/10/14 07:29:11;;;;;;;40.40;26.75;;;;;;;11.21;75.01;101347.53;1706447;83;21109;-93
2022/10/14 07:31:38;;;;;;;39.50;27.77;;;;;;;11.27;74.81;101342.44;1758229;80;21046;-92
2022/10/14 07:34:06;;;;;;;46.18;27.10;;;;;;;11.35;74.72;101343.11;1751635;80;21062;-93
2022/10/14 07:36:35;;;;;;;42.23;28.83;;;;;;;11.44;74.55;101345.60;1766473;80;21715;-93
2022/10/14 07:39:03;;;;;;;42.73;28.23;;;;;;;11.49;74.37;101339.17;1750475;80;21113;-93
2022/10/14 07:41:30;;;;;;;42.55;27.42;;;;;;;11.56;74.31;101334.96;1705433;82;21079;-92
2022/10/14 07:44:05;;;;;;;42.40;29.23;;;;;;;11.61;74.16;101340.84;1692731;84;21674;-93
2022/10/14 07:46:33;;;;;;;45.58;28.50;;;;;;;11.63;73.95;101340.47;1702100;84;22352;-84
2022/10/14 07:49:04;;;;;;;46.53;29.02;;;;;;;11.62;73.88;101345.28;1705373;82;22537;-83
2022/10/14 07:51:31;;;;;;;40.75;28.85;;;;;;;11.66;73.85;101339.68;1697721;84;21352;-84
2022/10/14 07:53:59;;;;;;;44.98;28.75;;;;;;;11.61;73.91;101325.02;1748226;81;21122;-83
2022/10/14 07:56:26;;;;;;;43.00;28.77;;;;;;;11.77;73.83;101346.17;1761870;80;21117;-84
2022/10/14 07:58:52;;;;;;;37.55;28.47;;;;;;;11.82;73.76;101342.33;1768006;80;21076;-83
2022/10/14 08:01:23;;;;;;;46.53;29.55;;;;;;;11.84;73.62;101334.03;1763248;81;21042;-83
2022/10/14 08:03:50;;;;;;;48.30;29.70;;;;;;;11.87;73.57;101330.19;1765217;79;21117;-83
2022/10/14 08:06:17;;;;;;;43.63;29.35;;;;;;;11.92;73.48;101332.97;1765592;80;21065;-83
2022/10/14 08:08:44;;;;;;;39.20;27.85;;;;;;;11.96;73.48;101330.92;1763987;79;21134;-84
2022/10/14 08:11:16;;;;;;;48.08;28.90;;;;;;;12.01;73.34;101338.11;1765413;81;21109;-83
2022/10/14 08:13:44;;;;;;;38.60;29.15;;;;;;;11.91;73.19;101315.37;1763914;79;21797;-82
2022/10/14 08:16:18;;;;;;;47.27;29.50;;;;;;;12.02;73.28;101328.02;1761425;79;21579;-81
2022/10/14 08:18:50;;;;;;;40.03;28.23;;;;;;;12.05;73.21;101317.98;1761666;79;21065;-81
2022/10/14 08:21:19;;;;;;;51.77;33.13;;;;;;;12.17;73.20;101327.55;1714283;81;22022;-81
2022/10/14 08:23:47;;;;;;;45.20;30.90;;;;;;;12.23;73.16;101326.82;1764416;79;21092;-81
2022/10/14 08:26:41;;;;;;;59.03;37.28;;;;;;;12.27;73.06;101319.88;1768507;79;21978;-81
2022/10/14 08:29:12;;;;;;;55.90;37.30;;;;;;;12.27;72.84;101323.84;1766643;79;21061;-82
2022/10/14 08:31:39;;;;;;;57.08;35.45;;;;;;;12.09;72.84;101288.59;1771094;79;21058;-82
2022/10/14 08:34:09;;;;;;;48.10;33.35;;;;;;;12.32;72.81;101319.59;1767917;79;21054;-84
2022/10/14 08:36:38;;;;;;;42.45;30.15;;;;;;;12.35;72.89;101313.97;1788443;79;21057;-81
2022/10/14 08:39:05;;;;;;;43.13;30.88;;;;;;;12.43;72.78;101319.45;1767638;79;21780;-82
2022/10/14 08:41:46;;;;;;;45.85;30.17;;;;;;;12.48;72.66;101318.23;1714694;82;21276;-91
2022/10/14 08:44:40;;;;;;;43.20;30.30;;;;;;;12.51;72.57;101318.33;1733269;81;21610;-93
2022/10/14 08:47:14;;;;;;;41.35;29.85;;;;;;;12.55;72.48;101313.16;1765826;79;21042;-90
2022/10/14 08:50:04;;;;;;;43.90;30.12;;;;;;;12.61;72.41;101312.42;1769112;79;21426;-82
2022/10/14 08:52:44;;;;;;;37.53;28.17;;;;;;;12.66;72.35;101315.20;1764905;81;22157;-84
2022/10/14 08:55:38;;;;;;;45.58;30.40;;;;;;;12.71;72.28;101310.93;1794746;79;21042;-91
2022/10/14 08:58:31;;;;;;;42.13;29.90;;;;;;;12.76;72.23;101312.83;1796412;79;21563;-90
2022/10/14 09:01:05;;;;;;;44.15;32.23;;;;;;;12.81;72.19;101307.21;1774145;79;21006;-91
2022/10/14 09:03:32;;;;;;;46.30;30.88;;;;;;;12.88;72.12;101303.42;1757069;80;21038;-80
2022/10/14 09:06:06;;;;;;;41.37;30.75;;;;;;;12.93;72.04;101305.72;1689643;82;22427;-82
2022/10/14 09:08:41;;;;;;;37.28;28.83;;;;;;;13.01;72.03;101303.74;1754592;81;21080;-81
2022/10/14 09:11:19;;;;;;;39.08;30.48;;;;;;;13.10;72.07;101297.80;1714758;82;21076;-82
2022/10/14 09:13:52;;;;;;;45.33;31.57;;;;;;;13.21;71.87;101300.26;1756989;81;21113;-83
2022/10/14 09:16:28;;;;;;;55.88;35.63;;;;;;;13.29;71.67;101295.14;1764912;81;21077;-81
2022/10/14 09:19:00;;;;;;;57.03;37.03;;;;;;;13.41;71.63;101304.69;1740523;81;21897;-81
2022/10/14 09:21:33;;;;;;;51.63;36.08;;;;;;;13.54;71.69;101300.56;1733063;81;21085;-81
2022/10/14 09:24:35;;;;;;;54.05;37.05;;;;;;;13.69;71.62;101294.70;1737619;81;21934;-81
2022/10/14 09:27:10;;;;;;;48.15;33.58;;;;;;;13.79;71.41;101295.78;1763368;81;21080;-83
2022/10/14 09:29:47;;;;;;;46.25;32.67;;;;;;;13.86;71.21;101291.52;1767177;79;21114;-81
2022/10/14 09:32:48;;;;;;;48.28;31.15;;;;;;;13.93;71.14;101296.97;1787286;79;21789;-82
2022/10/14 09:35:34;;;;;;;49.45;30.17;;;;;;;14.03;71.03;101302.45;1793870;79;21052;-82
2022/10/14 09:38:01;;;;;;;43.28;31.68;;;;;;;14.09;70.86;101297.27;1763784;79;21657;-79
2022/10/14 09:40:44;;;;;;;49.18;30.90;;;;;;;14.16;70.72;101293.88;1763632;81;21079;-83
2022/10/14 09:43:20;;;;;;;44.18;29.20;;;;;;;14.20;70.65;101289.09;1763362;79;21058;-81
2022/10/14 09:46:09;;;;;;;47.78;30.97;;;;;;;14.29;70.62;101289.70;1782672;79;21755;-84
2022/10/14 09:48:47;;;;;;;43.10;29.52;;;;;;;14.34;70.42;101293.30;1783422;79;21073;-80
2022/10/14 09:51:29;;;;;;;49.10;33.13;;;;;;;14.45;70.44;101295.75;1772304;79;21063;-79
2022/10/14 09:54:02;;;;;;;50.28;32.08;;;;;;;14.52;70.21;101292.31;1748829;80;21065;-80
2022/10/14 09:56:41;;;;;;;;;;;;;;;14.58;69.97;101291.16;1712212;82;21105;-81
2022/10/14 09:59:20;;;;;;;48.78;32.38;;;;;;;14.65;69.87;101288.16;1769429;79;22026;-81
2022/10/14 10:01:58;;;;;;;48.80;32.42;;;;;;;14.73;69.83;101289.61;1764174;79;21037;-80
2022/10/14 10:04:33;;;;;;;43.60;30.88;;;;;;;14.85;69.60;101285.84;1783990;79;21674;-80
2022/10/14 10:07:04;;;;;;;45.67;30.92;;;;;;;14.91;69.48;101277.98;1795384;79;21109;-88
2022/10/14 10:09:31;;;;;;;39.55;30.02;;;;;;;15.06;69.32;101281.75;1778497;79;21026;-87
2022/10/14 10:11:58;;;;;;;42.93;31.62;;;;;;;15.19;69.24;101278.41;1776892;79;21887;-89
2022/10/14 10:14:29;;;;;;;43.00;30.02;;;;;;;15.29;68.91;101275.44;1775961;79;21520;-87
2022/10/14 10:17:11;;;;;;;45.58;31.12;;;;;;;15.38;68.79;101279.55;1745351;81;21056;-88
2022/10/14 10:19:44;;;;;;;41.15;29.75;;;;;;;15.51;68.76;101282.83;1764581;79;21528;-89
2022/10/14 10:22:24;;;;;;;40.12;28.20;;;;;;;15.60;68.64;101265.23;1761413;79;21049;-89
2022/10/14 10:25:03;;;;;;;45.78;30.72;;;;;;;15.81;68.49;101277.93;1784419;79;22084;-88
2022/10/14 10:27:40;;;;;;;43.48;30.82;;;;;;;15.91;68.04;101283.34;1766516;79;21072;-89
2022/10/14 10:30:23;;;;;;;50.00;30.68;;;;;;;15.87;67.76;101276.22;1784743;80;21097;-92
2022/10/14 10:33:17;;;;;;;47.10;30.82;;;;;;;15.87;67.67;101277.99;1772114;79;21072;-88
2022/10/14 10:36:14;;;;;;;40.15;29.87;;;;;;;15.85;67.67;101276.64;1775539;79;21057;-88
2022/10/14 10:38:58;;;;;;;42.05;29.15;;;;;;;15.88;67.51;101278.46;1780147;79;21774;-88
2022/10/14 10:41:30;;;;;;;46.45;30.68;;;;;;;15.81;67.29;101270.84;1767262;79;21563;-87
2022/10/14 10:44:21;;;;;;;41.73;29.42;;;;;;;15.75;67.32;101269.45;1765000;79;21064;-89
2022/10/14 10:47:19;;;;;;;41.33;30.35;;;;;;;15.70;67.35;101269.35;1797518;79;21025;-90
2022/10/14 10:50:16;;;;;;;43.45;29.63;;;;;;;15.63;67.19;101266.16;1797182;79;21045;-88
2022/10/14 10:53:10;;;;;;;44.20;30.37;;;;;;;15.52;67.18;101266.46;1775832;79;22594;-88
2022/10/14 10:55:57;;;;;;;56.55;40.28;;;;;;;15.48;67.24;101265.53;1766558;80;21335;-88
2022/10/14 10:58:48;;;;;;;72.00;43.85;;;;;;;15.49;67.29;101263.34;1783346;79;21017;-86
2022/10/14 11:01:27;;;;;;;77.47;49.13;;;;;;;15.49;67.26;101260.69;1770681;79;21092;-94
2022/10/14 11:04:11;;;;;;;69.12;45.95;;;;;;;15.50;67.25;101261.57;1751330;81;21069;-88
2022/10/14 11:13:00;;;;;;;40.63;28.57;;;;;;;15.80;67.44;101267.72;1733148;81;21057;-86
2022/10/14 11:15:47;;;;;;;40.50;28.65;;;;;;;15.97;67.45;101264.37;1733325;81;21098;-87
2022/10/14 11:18:32;;;;;;;38.80;27.20;;;;;;;16.18;67.39;101260.64;1732167;81;21069;-87
2022/10/14 11:21:22;;;;;;;43.48;28.73;;;;;;;16.37;67.12;101268.34;1739684;81;22165;-87
2022/10/14 11:23:58;;;;;;;43.80;29.42;;;;;;;16.52;66.84;101263.17;1763310;81;21094;-87
2022/10/14 11:26:37;;;;;;;39.48;28.87;;;;;;;16.62;66.65;101259.27;1687528;83;21072;-86
2022/10/14 11:29:34;;;;;;;36.30;28.25;;;;;;;16.71;66.41;101262.00;1705667;82;21035;-86
2022/10/14 11:32:15;;;;;;;39.83;25.97;;;;;;;16.80;66.31;101258.08;1745288;81;21117;-86
2022/10/14 11:34:54;;;;;;;38.28;28.62;;;;;;;17.00;66.15;101264.88;1707514;82;23118;-87
2022/10/14 11:37:37;;;;;;;39.80;29.15;;;;;;;17.11;65.98;101263.63;1705666;81;21076;-87
2022/10/14 11:40:28;;;;;;;39.27;27.77;;;;;;;17.26;65.83;101257.06;1751818;81;21587;-87
2022/10/14 11:43:31;;;;;;;55.88;33.02;;;;;;;17.44;65.62;101246.09;1732396;81;21571;-87
2022/10/14 11:46:11;;;;;;;109.85;55.67;;;;;;;17.56;65.26;101248.79;1754559;81;21155;-87
2022/10/14 11:48:55;;;;;;;81.72;49.42;;;;;;;17.61;64.89;101244.38;1751450;81;22646;-86
2022/10/14 11:51:42;;;;;;;61.98;46.00;;;;;;;17.56;64.53;101250.13;1737903;81;21035;-87
2022/10/14 11:54:46;;;;;;;52.38;33.73;;;;;;;17.42;64.31;101242.09;1732455;81;21101;-87
2022/10/14 11:57:35;;;;;;;45.95;36.53;;;;;;;17.36;64.51;101237.16;1731493;81;21046;-86